Time;durP1;ratioP1;P1;durP2;ratioP2;P2;SDS_P1;SDS_P2;PMS_P1;PMS_P2;Temp;Humidity;BMP_temperature;BMP_pressure;BME280_temperature;BME280_humidity;BME280_pressure;Samples;Min_cycle;Max_cycle;Signal;HPM_P1;HPM_P2
2021/10/30 00:01:15;;;;;;;0.80;0.80;;;7.60;99.90;;;;;;4981775;28;20450;-88
2021/10/30 00:03:41;;;;;;;0.30;0.30;;;7.60;99.90;;;;;;4981675;28;20093;-88
2021/10/30 00:06:08;;;;;;;0.20;0.20;;;7.50;99.90;;;;;;4981507;28;20026;-89
2021/10/30 00:08:34;;;;;;;0.30;0.30;;;7.60;99.90;;;;;;4981693;28;20476;-89
2021/10/30 00:11:00;;;;;;;0.20;0.20;;;7.60;99.90;;;;;;4997651;28;20080;-88
2021/10/30 00:13:26;;;;;;;4.88;4.60;;;7.60;99.90;;;;;;4997573;28;20060;-89
2021/10/30 00:15:52;;;;;;;12.85;11.90;;;7.70;99.90;;;;;;4997583;28;20025;-89
2021/10/30 00:18:17;;;;;;;0.43;0.43;;;7.60;99.90;;;;;;4981423;28;20053;-89
2021/10/30 00:20:43;;;;;;;1.10;1.10;;;7.60;99.90;;;;;;4997548;28;20061;-89
2021/10/30 00:23:09;;;;;;;0.30;0.30;;;7.60;99.90;;;;;;4997490;28;20030;-89
2021/10/30 00:25:35;;;;;;;0.30;0.30;;;7.40;99.90;;;;;;4997487;28;20014;-89
2021/10/30 00:28:17;;;;;;;9.57;8.77;;;7.20;99.90;;;;;;4997576;28;20399;-88
2021/10/30 00:30:43;;;;;;;;;;;6.80;99.90;;;;;;4981206;28;20060;-89
2021/10/30 00:33:09;;;;;;;0.30;0.30;;;6.80;99.90;;;;;;4981235;28;20007;-89
2021/10/30 00:35:34;;;;;;;1.08;1.00;;;7.00;99.90;;;;;;4996316;28;20026;-88
2021/10/30 00:38:00;;;;;;;0.30;0.30;;;7.10;99.90;;;;;;4997339;28;20499;-89
2021/10/30 00:40:26;;;;;;;0.30;0.30;;;7.10;99.90;;;;;;4997114;28;20129;-89
2021/10/30 00:42:52;;;;;;;0.30;0.30;;;7.10;99.90;;;;;;4997096;28;20026;-88
2021/10/30 00:45:18;;;;;;;0.30;0.30;;;7.20;99.90;;;;;;4996825;28;20129;-88
2021/10/30 00:47:44;;;;;;;0.30;0.30;;;7.30;99.90;;;;;;4980892;28;20487;-89
2021/10/30 00:50:09;;;;;;;0.85;0.85;;;7.20;99.90;;;;;;4996914;28;20034;-89
2021/10/30 00:52:38;;;;;;;0.65;0.63;;;7.20;99.90;;;;;;4996918;28;20033;-88
2021/10/30 00:55:06;;;;;;;0.47;0.47;;;7.20;99.90;;;;;;4980507;28;20164;-89
2021/10/30 00:57:36;;;;;;;0.43;0.43;;;7.00;99.90;;;;;;4996877;28;20125;-88
2021/10/30 01:00:02;;;;;;;0.45;0.45;;;6.90;99.90;;;;;;4981575;28;20045;-89
2021/10/30 01:02:28;;;;;;;0.30;0.30;;;6.70;99.90;;;;;;4988695;28;20033;-88
2021/10/30 01:04:54;;;;;;;0.30;0.30;;;6.50;99.90;;;;;;4996918;28;20022;-88
2021/10/30 01:07:20;;;;;;;0.30;0.30;;;6.60;99.90;;;;;;4996567;28;20041;-89
2021/10/30 01:09:46;;;;;;;0.47;0.47;;;6.80;99.90;;;;;;4980480;28;20022;-89
2021/10/30 01:12:11;;;;;;;6.63;0.90;;;6.90;99.90;;;;;;4996637;28;20084;-89
2021/10/30 01:14:39;;;;;;;0.40;0.40;;;6.80;99.90;;;;;;4996459;28;20080;-89
2021/10/30 01:17:07;;;;;;;0.30;0.30;;;6.70;99.90;;;;;;4980513;28;20030;-89
2021/10/30 01:19:33;;;;;;;0.30;0.30;;;6.80;99.90;;;;;;4982291;28;20049;-89
2021/10/30 01:22:00;;;;;;;0.20;0.20;;;6.70;99.90;;;;;;4981278;28;20092;-88
2021/10/30 01:24:26;;;;;;;0.50;0.50;;;6.60;99.90;;;;;;4981551;28;20025;-88
2021/10/30 01:26:52;;;;;;;0.30;0.30;;;6.60;99.90;;;;;;4996694;28;20026;-89
2021/10/30 01:29:18;;;;;;;0.40;0.40;;;6.60;99.90;;;;;;4997158;28;20018;-88
2021/10/30 01:31:44;;;;;;;0.30;0.30;;;6.70;99.90;;;;;;5010760;28;20052;-88
2021/10/30 01:34:10;;;;;;;0.35;0.35;;;6.90;99.90;;;;;;5009208;28;20084;-89
2021/10/30 01:36:37;;;;;;;0.28;0.28;;;6.90;99.90;;;;;;4982820;28;20037;-88
2021/10/30 01:39:05;;;;;;;9.85;1.20;;;6.90;99.90;;;;;;4981641;28;20419;-88
2021/10/30 01:41:31;;;;;;;0.32;0.32;;;6.60;99.90;;;;;;4997439;28;20038;-89
2021/10/30 01:43:57;;;;;;;0.30;0.30;;;6.20;99.90;;;;;;4981604;28;20018;-89
2021/10/30 01:46:24;;;;;;;0.32;0.32;;;6.20;99.90;;;;;;4998173;28;20072;-89
2021/10/30 01:48:50;;;;;;;0.30;0.30;;;6.10;99.90;;;;;;4981603;28;20483;-88
2021/10/30 01:51:17;;;;;;;0.30;0.30;;;6.10;99.90;;;;;;4997858;28;20079;-88
2021/10/30 01:53:44;;;;;;;2.30;1.33;;;6.00;99.90;;;;;;4981091;28;20116;-88
2021/10/30 01:56:11;;;;;;;0.30;0.30;;;6.10;99.90;;;;;;4981022;28;20076;-88
2021/10/30 01:58:37;;;;;;;0.47;0.47;;;6.20;99.90;;;;;;4997572;28;20495;-89
2021/10/30 02:01:04;;;;;;;0.50;0.50;;;6.20;99.90;;;;;;4980787;28;20487;-89
2021/10/30 02:03:31;;;;;;;0.40;0.40;;;6.10;99.90;;;;;;4980459;28;20025;-89
2021/10/30 02:05:57;;;;;;;0.70;0.70;;;5.90;99.90;;;;;;4980593;28;20045;-88
2021/10/30 02:08:23;;;;;;;0.30;0.30;;;5.80;99.90;;;;;;4980554;28;20075;-88
2021/10/30 02:10:49;;;;;;;0.30;0.30;;;5.80;99.90;;;;;;4981339;28;20371;-89
2021/10/30 02:13:15;;;;;;;0.63;0.63;;;5.70;99.90;;;;;;4997775;28;20030;-89
2021/10/30 02:15:41;;;;;;;0.30;0.30;;;5.60;99.90;;;;;;4997896;28;20022;-89
2021/10/30 02:18:08;;;;;;;0.25;0.25;;;5.70;99.90;;;;;;4998038;28;20022;-88
2021/10/30 02:20:34;;;;;;;0.40;0.40;;;5.90;99.90;;;;;;4998582;28;20033;-89
2021/10/30 02:23:00;;;;;;;0.30;0.30;;;5.90;99.90;;;;;;4980903;28;20033;-88
2021/10/30 02:25:26;;;;;;;0.30;0.30;;;5.70;99.90;;;;;;4980118;28;20107;-88
2021/10/30 02:27:53;;;;;;;0.65;0.65;;;5.60;99.90;;;;;;4996627;28;20061;-89
2021/10/30 02:30:20;;;;;;;13.25;1.55;;;5.70;99.90;;;;;;4980159;28;20030;-88
2021/10/30 02:32:46;;;;;;;0.75;0.60;;;5.70;99.90;;;;;;4980568;28;20022;-88
2021/10/30 02:35:12;;;;;;;0.30;0.30;;;5.50;99.90;;;;;;4979695;28;20026;-89
2021/10/30 02:37:39;;;;;;;7.32;5.45;;;5.50;99.90;;;;;;4980791;28;20061;-89
2021/10/30 02:40:06;;;;;;;0.30;0.30;;;5.40;99.90;;;;;;4980659;28;20026;-88
2021/10/30 02:42:32;;;;;;;0.40;0.40;;;5.30;99.90;;;;;;4980303;28;20053;-88
2021/10/30 02:45:00;;;;;;;0.30;0.30;;;5.70;99.90;;;;;;4980687;28;20026;-89
2021/10/30 02:47:26;;;;;;;0.30;0.30;;;5.50;99.90;;;;;;4980685;28;20064;-89
2021/10/30 02:49:52;;;;;;;0.20;0.20;;;5.60;99.90;;;;;;4982663;28;20025;-88
2021/10/30 02:52:18;;;;;;;0.20;0.20;;;5.60;99.90;;;;;;4995668;28;20399;-88
2021/10/30 02:54:43;;;;;;;0.50;0.50;;;5.60;99.90;;;;;;4994716;28;20029;-89
2021/10/30 02:57:09;;;;;;;0.68;0.68;;;5.60;99.90;;;;;;4994804;28;20380;-89
2021/10/30 02:59:35;;;;;;;0.40;0.40;;;5.70;99.90;;;;;;4994429;28;20026;-88
2021/10/30 03:02:00;;;;;;;0.30;0.30;;;5.90;99.90;;;;;;5011051;28;20026;-89
2021/10/30 03:04:26;;;;;;;0.52;0.52;;;5.90;99.90;;;;;;4998324;28;20076;-88
2021/10/30 03:06:53;;;;;;;0.30;0.30;;;5.80;99.90;;;;;;4998966;28;20030;-88
2021/10/30 03:09:19;;;;;;;1.52;1.25;;;5.90;99.90;;;;;;4979905;28;20029;-89
2021/10/30 03:11:45;;;;;;;0.75;0.75;;;6.10;99.90;;;;;;4979856;28;20026;-88
2021/10/30 03:14:10;;;;;;;0.40;0.40;;;6.10;99.90;;;;;;4980213;28;20022;-89
2021/10/30 03:16:36;;;;;;;0.40;0.40;;;6.10;99.90;;;;;;4995816;28;20022;-89
2021/10/30 03:19:02;;;;;;;0.30;0.30;;;6.10;99.90;;;;;;4979511;28;20022;-89
2021/10/30 03:21:28;;;;;;;0.93;0.93;;;5.80;99.90;;;;;;4994496;28;20126;-89
2021/10/30 03:23:53;;;;;;;0.73;0.73;;;5.80;99.90;;;;;;4994651;28;20021;-89
2021/10/30 03:26:19;;;;;;;0.50;0.50;;;5.70;99.90;;;;;;4994325;28;20026;-89
2021/10/30 03:28:45;;;;;;;0.30;0.30;;;5.80;99.90;;;;;;4978463;28;20137;-89
2021/10/30 03:31:11;;;;;;;0.30;0.30;;;5.60;99.90;;;;;;4994528;28;20022;-89
2021/10/30 03:33:37;;;;;;;3.40;1.35;;;5.50;99.90;;;;;;4978184;28;20028;-88
2021/10/30 03:36:04;;;;;;;0.38;0.38;;;5.40;99.90;;;;;;5003289;28;20032;-89
2021/10/30 03:38:29;;;;;;;0.77;0.77;;;5.40;99.90;;;;;;4993786;28;20029;-88
2021/10/30 03:40:55;;;;;;;0.47;0.47;;;5.20;99.90;;;;;;5008184;28;20505;-88
2021/10/30 03:43:21;;;;;;;0.30;0.30;;;5.30;99.90;;;;;;4980371;28;20533;-89
2021/10/30 03:45:47;;;;;;;0.70;0.70;;;5.40;99.90;;;;;;4978676;28;20022;-89
2021/10/30 03:48:17;;;;;;;0.30;0.30;;;5.50;99.90;;;;;;4994748;28;20060;-89
2021/10/30 03:50:43;;;;;;;0.30;0.30;;;5.60;99.90;;;;;;4988371;28;20026;-89
2021/10/30 03:53:09;;;;;;;0.30;0.30;;;5.60;99.90;;;;;;5012070;23;20518;-90
2021/10/30 03:55:35;;;;;;;1.20;1.20;;;5.50;99.90;;;;;;5009964;28;20112;-90
2021/10/30 03:58:00;;;;;;;0.20;0.20;;;5.30;99.90;;;;;;5011113;28;20052;-90
2021/10/30 04:00:26;;;;;;;0.30;0.30;;;5.30;99.90;;;;;;5010978;28;20434;-90
2021/10/30 04:02:52;;;;;;;0.30;0.30;;;5.40;99.90;;;;;;5011036;28;20022;-89
2021/10/30 04:05:18;;;;;;;0.32;0.32;;;5.30;99.90;;;;;;4994654;28;20503;-89
2021/10/30 04:07:43;;;;;;;0.30;0.30;;;5.20;99.90;;;;;;4994848;28;20100;-89
2021/10/30 04:10:09;;;;;;;0.40;0.40;;;5.10;99.90;;;;;;5011415;28;20029;-90
2021/10/30 04:12:35;;;;;;;0.40;0.40;;;5.10;99.90;;;;;;4998424;28;20030;-89
2021/10/30 04:15:01;;;;;;;0.75;0.75;;;5.10;99.90;;;;;;5014436;28;20026;-90
2021/10/30 04:17:27;;;;;;;0.30;0.30;;;5.00;99.90;;;;;;4998053;28;20026;-89
2021/10/30 04:19:52;;;;;;;0.93;0.93;;;5.00;99.90;;;;;;5014748;28;20080;-89
2021/10/30 04:22:18;;;;;;;0.40;0.40;;;5.20;99.90;;;;;;5014375;28;20022;-90
2021/10/30 04:24:44;;;;;;;0.30;0.30;;;5.40;99.90;;;;;;5014120;28;20033;-90
2021/10/30 04:27:10;;;;;;;0.45;0.45;;;5.30;99.90;;;;;;5014408;28;20391;-89
2021/10/30 04:29:35;;;;;;;0.40;0.40;;;5.20;99.90;;;;;;5014376;28;20026;-90
2021/10/30 04:32:03;;;;;;;0.40;0.40;;;5.20;99.90;;;;;;5014201;28;20041;-89
2021/10/30 04:34:47;;;;;;;2.25;2.15;;;5.10;99.90;;;;;;4997743;28;20030;-90
2021/10/30 04:37:16;;;;;;;0.30;0.30;;;5.40;99.90;;;;;;4997731;28;20022;-89
2021/10/30 04:39:47;;;;;;;0.50;0.50;;;5.60;99.90;;;;;;4998156;28;20548;-89
2021/10/30 04:42:14;;;;;;;0.50;0.50;;;5.60;99.90;;;;;;4997565;28;20030;-89
2021/10/30 04:44:40;;;;;;;0.32;0.32;;;5.60;99.90;;;;;;5013645;28;20072;-90
2021/10/30 04:47:06;;;;;;;0.65;0.65;;;5.50;99.90;;;;;;5013992;28;20450;-90
2021/10/30 04:49:33;;;;;;;0.32;0.32;;;5.10;99.90;;;;;;4997427;28;20118;-90
2021/10/30 04:51:59;;;;;;;0.35;0.35;;;5.10;99.90;;;;;;4997509;28;20441;-89
2021/10/30 04:54:25;;;;;;;0.90;0.63;;;5.10;99.90;;;;;;4997324;28;20117;-90
2021/10/30 04:56:51;;;;;;;0.40;0.40;;;5.20;99.90;;;;;;4997300;28;20372;-89
2021/10/30 04:59:17;;;;;;;0.95;0.93;;;5.30;99.90;;;;;;5013961;28;20030;-90
2021/10/30 05:01:42;;;;;;;0.80;0.80;;;5.30;99.90;;;;;;5014047;28;20087;-90
2021/10/30 05:04:08;;;;;;;1.15;1.15;;;5.10;99.90;;;;;;5013863;28;20423;-89
2021/10/30 05:06:34;;;;;;;0.82;0.82;;;5.20;99.90;;;;;;5013387;28;20023;-90
2021/10/30 05:08:59;;;;;;;0.65;0.65;;;5.30;99.90;;;;;;5013438;28;20014;-89
2021/10/30 05:11:25;;;;;;;0.68;0.68;;;5.20;99.90;;;;;;5013509;28;20483;-90
2021/10/30 05:13:50;;;;;;;0.32;0.32;;;5.20;99.90;;;;;;5013194;28;20442;-90
2021/10/30 05:16:16;;;;;;;0.52;0.52;;;5.20;99.90;;;;;;5013232;28;20030;-90
2021/10/30 05:18:42;;;;;;;1.60;1.33;;;5.20;99.90;;;;;;5013808;28;20119;-90
2021/10/30 05:21:07;;;;;;;0.45;0.45;;;5.00;99.90;;;;;;5013411;28;20088;-89
2021/10/30 05:23:37;;;;;;;0.40;0.40;;;4.90;99.90;;;;;;5038151;28;20121;-93
2021/10/30 05:26:03;;;;;;;0.40;0.40;;;4.70;99.90;;;;;;5002758;28;20026;-91
2021/10/30 05:28:29;;;;;;;0.50;0.50;;;4.80;99.90;;;;;;4997429;28;20037;-89
2021/10/30 05:30:55;;;;;;;0.60;0.52;;;4.80;99.90;;;;;;4996896;28;20022;-89
2021/10/30 05:33:21;;;;;;;1.77;1.55;;;4.80;99.90;;;;;;5013222;28;20022;-89
2021/10/30 05:35:47;;;;;;;0.50;0.50;;;4.60;99.90;;;;;;5013261;28;20165;-89
2021/10/30 05:38:14;;;;;;;0.50;0.50;;;4.60;99.90;;;;;;5012877;28;20076;-89
2021/10/30 05:40:40;;;;;;;0.38;0.38;;;4.60;99.90;;;;;;4997023;28;20022;-89
2021/10/30 05:43:07;;;;;;;0.47;0.47;;;4.60;99.90;;;;;;4996739;28;20026;-90
2021/10/30 05:45:33;;;;;;;0.40;0.40;;;4.90;99.90;;;;;;4996683;28;20112;-90
2021/10/30 05:47:59;;;;;;;2.70;1.70;;;4.80;99.90;;;;;;4996465;28;20034;-89
2021/10/30 05:50:24;;;;;;;0.30;0.30;;;4.60;99.90;;;;;;4996276;28;20117;-90
2021/10/30 05:52:50;;;;;;;0.55;0.55;;;4.70;99.90;;;;;;5012727;28;20034;-90
2021/10/30 05:55:16;;;;;;;2.00;1.58;;;4.80;99.90;;;;;;5012885;28;20030;-90
2021/10/30 05:57:41;;;;;;;0.50;0.50;;;4.70;99.90;;;;;;5013617;28;20108;-89
2021/10/30 06:00:08;;;;;;;0.40;0.40;;;4.70;99.90;;;;;;5012917;28;20033;-90
2021/10/30 06:02:33;;;;;;;0.50;0.50;;;4.50;99.90;;;;;;5012355;28;20025;-89
2021/10/30 06:04:59;;;;;;;0.30;0.30;;;4.50;99.90;;;;;;4996164;28;20079;-90
2021/10/30 06:07:25;;;;;;;0.38;0.38;;;4.50;99.90;;;;;;5012415;28;20022;-89
2021/10/30 06:09:50;;;;;;;0.40;0.40;;;4.60;99.90;;;;;;5012832;28;20476;-90
2021/10/30 06:12:16;;;;;;;1.05;1.05;;;4.70;99.90;;;;;;5013650;28;20022;-90
2021/10/30 06:14:42;;;;;;;1.00;0.82;;;4.70;99.90;;;;;;5026455;28;20041;-90
2021/10/30 06:17:08;;;;;;;0.68;0.68;;;4.80;99.90;;;;;;5027021;28;20061;-90
2021/10/30 06:19:33;;;;;;;1.80;1.45;;;4.70;99.90;;;;;;5024085;28;20030;-89
2021/10/30 06:21:59;;;;;;;0.60;0.60;;;4.50;99.90;;;;;;5020561;28;20030;-90
2021/10/30 06:24:25;;;;;;;1.38;1.30;;;4.50;99.90;;;;;;5013514;28;20022;-89
2021/10/30 06:26:51;;;;;;;0.50;0.50;;;4.60;99.90;;;;;;4996771;28;20061;-90
2021/10/30 06:29:17;;;;;;;0.30;0.30;;;4.70;99.90;;;;;;5013065;28;20030;-90
2021/10/30 06:31:43;;;;;;;3.10;0.82;;;4.90;99.90;;;;;;5012766;28;20030;-90
2021/10/30 06:34:09;;;;;;;0.35;0.35;;;4.60;99.90;;;;;;5011962;28;20618;-90
2021/10/30 06:36:35;;;;;;;0.40;0.40;;;4.60;99.90;;;;;;4995815;28;20032;-91
2021/10/30 06:39:01;;;;;;;0.30;0.30;;;4.60;99.90;;;;;;5012143;28;20120;-90
2021/10/30 06:41:27;;;;;;;0.40;0.40;;;4.80;99.90;;;;;;4995651;28;20029;-90
2021/10/30 06:43:52;;;;;;;1.30;0.70;;;4.80;99.90;;;;;;5013652;28;20018;-90
2021/10/30 06:46:18;;;;;;;1.17;1.17;;;4.80;99.90;;;;;;5014484;28;20028;-90
2021/10/30 06:48:44;;;;;;;0.30;0.30;;;4.80;99.90;;;;;;5012730;28;20100;-90
2021/10/30 06:51:11;;;;;;;0.93;0.57;;;4.80;99.90;;;;;;5012618;28;20030;-90
2021/10/30 06:53:37;;;;;;;0.32;0.32;;;4.80;99.90;;;;;;4996287;28;20057;-90
2021/10/30 06:56:04;;;;;;;0.30;0.30;;;5.00;99.90;;;;;;5013861;28;20080;-90
2021/10/30 06:58:30;;;;;;;1.58;1.50;;;5.30;99.90;;;;;;5014009;28;20022;-90
2021/10/30 07:00:57;;;;;;;0.60;0.60;;;5.50;99.90;;;;;;5013769;28;20052;-90
2021/10/30 07:03:24;;;;;;;0.30;0.30;;;5.50;99.90;;;;;;5012913;28;20048;-90
2021/10/30 07:05:49;;;;;;;1.25;0.98;;;5.60;99.90;;;;;;5012341;28;20026;-90
2021/10/30 07:08:15;;;;;;;1.15;1.15;;;5.50;99.90;;;;;;5012211;28;20112;-90
2021/10/30 07:10:41;;;;;;;0.30;0.30;;;5.60;99.90;;;;;;5012045;28;20024;-90
2021/10/30 07:13:06;;;;;;;0.30;0.30;;;5.40;99.90;;;;;;5012533;28;20037;-90
2021/10/30 07:15:32;;;;;;;1.70;1.60;;;5.40;99.90;;;;;;5012279;28;20030;-90
2021/10/30 07:17:58;;;;;;;0.30;0.30;;;5.50;99.90;;;;;;5011699;28;20125;-90
2021/10/30 07:20:25;;;;;;;0.40;0.40;;;5.60;99.90;;;;;;5011720;28;20026;-90
2021/10/30 07:22:51;;;;;;;0.30;0.30;;;5.70;99.90;;;;;;4995499;28;20508;-91
2021/10/30 07:25:20;;;;;;;0.30;0.30;;;5.90;99.90;;;;;;5012541;28;20056;-91
2021/10/30 07:27:47;;;;;;;0.35;0.35;;;6.20;99.90;;;;;;5012191;28;20050;-92
2021/10/30 07:30:13;;;;;;;0.52;0.52;;;6.30;99.90;;;;;;4996102;28;20479;-92
2021/10/30 07:32:41;;;;;;;0.30;0.30;;;6.30;99.90;;;;;;4996496;28;20026;-91
2021/10/30 07:35:07;;;;;;;0.63;0.63;;;6.30;99.90;;;;;;4999126;28;20034;-91
2021/10/30 07:37:37;;;;;;;0.32;0.32;;;6.50;99.90;;;;;;4997397;28;20026;-91
2021/10/30 07:40:09;;;;;;;0.30;0.30;;;6.60;99.90;;;;;;4998606;28;20476;-91
2021/10/30 07:42:35;;;;;;;0.30;0.30;;;6.80;99.90;;;;;;4997082;28;20037;-91
2021/10/30 07:45:06;;;;;;;0.20;0.20;;;6.80;99.90;;;;;;4998341;28;20033;-92
2021/10/30 07:47:31;;;;;;;0.30;0.30;;;6.90;99.90;;;;;;5002368;28;20030;-91
2021/10/30 07:49:58;;;;;;;4.50;4.25;;;6.90;99.90;;;;;;5019950;28;20018;-91
2021/10/30 07:52:24;;;;;;;0.30;0.30;;;7.10;99.90;;;;;;5016139;28;20038;-92
2021/10/30 07:54:50;;;;;;;0.30;0.30;;;7.20;99.90;;;;;;4999991;28;20022;-91
2021/10/30 07:57:16;;;;;;;0.30;0.30;;;7.30;99.90;;;;;;5015754;28;20022;-91
2021/10/30 07:59:42;;;;;;;0.30;0.30;;;7.30;99.90;;;;;;4999206;28;20026;-91
2021/10/30 08:02:08;;;;;;;0.25;0.25;;;7.40;99.90;;;;;;4999682;28;20121;-91
2021/10/30 08:04:36;;;;;;;0.30;0.30;;;7.50;99.90;;;;;;5015234;28;20108;-92
2021/10/30 08:07:04;;;;;;;0.20;0.20;;;7.70;99.90;;;;;;4998594;28;20050;-91
2021/10/30 08:09:35;;;;;;;0.75;0.75;;;7.90;99.90;;;;;;5000234;28;20022;-92
2021/10/30 08:12:02;;;;;;;0.82;0.82;;;8.20;99.90;;;;;;5000940;28;20025;-92
2021/10/30 08:14:28;;;;;;;0.22;0.22;;;8.40;99.90;;;;;;5000710;28;20180;-92
2021/10/30 08:17:15;;;;;;;0.30;0.30;;;8.60;99.90;;;;;;5000409;28;20022;-92
2021/10/30 08:19:43;;;;;;;0.30;0.30;;;8.70;99.90;;;;;;4996693;28;20104;-92
2021/10/30 08:22:09;;;;;;;0.30;0.30;;;8.80;99.90;;;;;;5019412;28;20482;-91
2021/10/30 08:24:35;;;;;;;0.25;0.25;;;8.70;99.90;;;;;;5022091;28;20072;-91
2021/10/30 08:27:01;;;;;;;0.30;0.30;;;8.80;99.90;;;;;;5012339;28;20029;-91
2021/10/30 08:29:30;;;;;;;0.25;0.25;;;8.90;99.90;;;;;;5005593;23;20540;-77
2021/10/30 08:31:55;;;;;;;0.30;0.30;;;8.90;99.90;;;;;;4974372;28;20387;-76
2021/10/30 08:34:21;;;;;;;0.20;0.20;;;9.00;99.90;;;;;;4982140;28;20030;-75
2021/10/30 08:36:47;;;;;;;0.20;0.20;;;9.00;99.90;;;;;;4977138;28;20497;-75
2021/10/30 08:39:13;;;;;;;0.20;0.20;;;9.10;99.90;;;;;;4993691;28;20482;-75
2021/10/30 08:41:39;;;;;;;0.47;0.47;;;9.20;99.90;;;;;;4993538;28;20402;-75
2021/10/30 08:44:05;;;;;;;0.20;0.20;;;9.30;99.90;;;;;;4994942;28;20127;-75
2021/10/30 08:46:31;;;;;;;0.30;0.30;;;9.40;99.90;;;;;;4977454;28;20110;-75
2021/10/30 08:49:02;;;;;;;0.25;0.25;;;9.40;99.90;;;;;;4994670;28;20260;-75
2021/10/30 08:51:33;;;;;;;0.73;0.60;;;9.40;99.90;;;;;;4986841;28;20103;-75
2021/10/30 08:53:59;;;;;;;0.30;0.30;;;9.50;99.90;;;;;;4975192;28;20030;-75
2021/10/30 08:56:25;;;;;;;0.63;0.63;;;9.60;99.90;;;;;;4974292;28;20054;-75
2021/10/30 08:58:51;;;;;;;0.77;0.77;;;9.60;99.90;;;;;;4973824;28;20086;-74
2021/10/30 09:01:17;;;;;;;0.20;0.20;;;9.70;99.90;;;;;;4975087;28;20035;-75
2021/10/30 09:03:55;;;;;;;0.20;0.20;;;9.70;99.90;;;;;;4973815;28;20398;-75
2021/10/30 09:06:32;;;;;;;0.22;0.22;;;10.10;99.90;;;;;;4974854;28;20027;-75
2021/10/30 09:09:17;;;;;;;0.45;0.45;;;10.30;99.90;;;;;;4974976;28;20490;-75
2021/10/30 09:11:59;;;;;;;0.20;0.20;;;10.70;99.90;;;;;;4974872;28;20027;-75
2021/10/30 09:14:29;;;;;;;0.20;0.20;;;11.00;99.90;;;;;;4973358;28;20057;-75
2021/10/30 09:17:12;;;;;;;0.20;0.20;;;11.30;99.90;;;;;;4973711;28;20027;-79
2021/10/30 09:19:52;;;;;;;0.20;0.20;;;11.70;99.90;;;;;;4974667;28;20033;-75
2021/10/30 09:22:20;;;;;;;0.47;0.47;;;12.00;99.90;;;;;;4974520;28;20089;-75
2021/10/30 09:24:53;;;;;;;0.20;0.20;;;12.20;99.90;;;;;;4974821;28;20497;-75
2021/10/30 09:27:41;;;;;;;0.20;0.20;;;12.60;99.90;;;;;;4992501;28;20393;-75
2021/10/30 09:30:07;;;;;;;0.20;0.20;;;13.20;99.90;;;;;;4992542;28;20038;-75
2021/10/30 09:32:33;;;;;;;0.20;0.20;;;13.90;99.90;;;;;;4993970;28;20038;-75
2021/10/30 09:34:59;;;;;;;0.20;0.20;;;14.40;99.70;;;;;;4993653;28;20026;-75
2021/10/30 09:37:25;;;;;;;0.20;0.20;;;15.00;97.30;;;;;;4994333;28;20026;-76
2021/10/30 09:40:20;;;;;;;1.90;1.65;;;15.80;94.20;;;;;;4993599;28;20029;-75
2021/10/30 09:43:03;;;;;;;0.95;0.95;;;16.60;90.20;;;;;;4993724;28;20446;-75
2021/10/30 09:45:29;;;;;;;0.10;0.10;;;17.30;81.40;;;;;;4992305;28;20022;-75
2021/10/30 09:48:01;;;;;;;0.13;0.13;;;17.60;78.20;;;;;;4993622;28;20032;-75
2021/10/30 09:50:32;;;;;;;0.20;0.20;;;18.00;74.60;;;;;;4993556;28;20021;-75
2021/10/30 09:53:21;;;;;;;0.10;0.10;;;18.50;71.20;;;;;;5014182;22;20042;-78
2021/10/30 09:55:52;;;;;;;0.75;0.75;;;18.90;67.90;;;;;;5011796;28;20036;-78
2021/10/30 09:58:30;;;;;;;0.10;0.10;;;19.30;64.50;;;;;;5011635;28;20068;-76
2021/10/30 10:00:59;;;;;;;0.10;0.10;;;19.60;65.30;;;;;;5012946;28;20092;-76
2021/10/30 10:03:27;;;;;;;0.10;0.10;;;20.00;64.40;;;;;;5012894;28;20109;-77
2021/10/30 10:05:55;;;;;;;0.10;0.10;;;20.20;63.60;;;;;;5012559;28;20018;-76
2021/10/30 10:08:21;;;;;;;0.32;0.32;;;20.60;62.60;;;;;;5010644;28;20029;-76
2021/10/30 10:10:47;;;;;;;0.20;0.20;;;21.00;58.70;;;;;;5012860;28;20021;-76
2021/10/30 10:13:14;;;;;;;0.15;0.15;;;21.30;58.10;;;;;;5012756;28;20084;-75
2021/10/30 10:15:42;;;;;;;17.33;2.05;;;21.70;57.20;;;;;;5010988;28;20477;-77
2021/10/30 10:18:09;;;;;;;0.05;0.05;;;22.20;55.30;;;;;;4998273;28;20400;-76
2021/10/30 10:20:35;;;;;;;0.10;0.10;;;22.50;54.70;;;;;;5012452;28;20028;-76
2021/10/30 10:23:01;;;;;;;0.10;0.10;;;22.50;51.00;;;;;;5011530;28;20029;-76
2021/10/30 10:25:35;;;;;;;0.10;0.10;;;22.80;51.70;;;;;;5001163;28;20018;-76
2021/10/30 10:28:27;;;;;;;0.10;0.10;;;23.40;51.30;;;;;;5031564;28;20124;-75
2021/10/30 10:30:59;;;;;;;0.65;0.65;;;23.60;50.10;;;;;;5032363;28;20490;-76
2021/10/30 10:33:25;;;;;;;;;;;23.80;46.70;;;;;;5022978;28;20025;-76
2021/10/30 10:36:26;;;;;;;0.00;0.00;;;24.30;44.80;;;;;;5010998;28;19909;-77
2021/10/30 10:38:58;;;;;;;19.63;1.17;;;24.90;39.70;;;;;;4993270;28;20133;-77
2021/10/30 10:41:45;;;;;;;0.25;0.25;;;24.90;36.90;;;;;;5008297;28;20105;-76
2021/10/30 10:44:12;;;;;;;0.10;0.10;;;24.90;38.10;;;;;;4994560;28;20527;-77
2021/10/30 10:46:53;;;;;;;0.00;0.00;;;25.30;38.30;;;;;;5011087;28;20504;-77
2021/10/30 10:52:18;;;;;;;0.00;0.00;;;26.10;36.20;;;;;;4992370;28;20053;-77
2021/10/30 10:54:56;;;;;;;0.00;0.00;;;26.10;35.00;;;;;;5007194;28;20117;-76
2021/10/30 10:57:29;;;;;;;0.00;0.00;;;25.90;32.90;;;;;;5023889;28;20026;-76
2021/10/30 11:00:08;;;;;;;0.08;0.08;;;25.80;34.40;;;;;;4992487;28;20060;-77
2021/10/30 11:02:52;;;;;;;0.00;0.00;;;25.60;32.60;;;;;;4992512;28;20102;-76
2021/10/30 11:05:19;;;;;;;0.00;0.00;;;25.90;32.40;;;;;;4991161;28;20026;-77
2021/10/30 11:07:51;;;;;;;0.00;0.00;;;26.50;32.30;;;;;;4991196;28;20061;-78
2021/10/30 11:10:19;;;;;;;0.10;0.10;;;26.30;31.80;;;;;;4990768;28;20027;-77
2021/10/30 11:13:09;;;;;;;0.00;0.00;;;26.20;29.80;;;;;;4991256;28;20030;-78
2021/10/30 11:15:55;;;;;;;0.03;0.03;;;26.50;30.30;;;;;;5007272;28;20050;-77
2021/10/30 11:21:20;;;;;;;0.00;0.00;;;27.30;29.10;;;;;;4995634;28;20026;-78
2021/10/30 11:24:18;;;;;;;0.35;0.35;;;27.80;28.00;;;;;;4998804;28;20018;-77
2021/10/30 11:26:52;;;;;;;0.30;0.30;;;28.00;26.50;;;;;;5025819;28;20037;-77
2021/10/30 11:29:18;;;;;;;0.10;0.10;;;28.30;26.60;;;;;;5035882;28;20453;-77
2021/10/30 11:31:50;;;;;;;0.40;0.40;;;28.20;27.10;;;;;;5035604;28;20032;-77
2021/10/30 11:34:16;;;;;;;0.30;0.30;;;28.00;26.80;;;;;;5034584;28;20049;-78
2021/10/30 11:36:42;;;;;;;0.00;0.00;;;27.90;26.10;;;;;;5035238;28;20056;-79
2021/10/30 11:39:13;;;;;;;0.10;0.10;;;27.80;25.70;;;;;;5035376;28;20025;-77
2021/10/30 11:41:41;;;;;;;0.00;0.00;;;27.70;26.70;;;;;;5035500;28;20044;-77
2021/10/30 11:44:15;;;;;;;0.00;0.00;;;27.70;24.10;;;;;;5035438;28;20030;-78
2021/10/30 11:46:50;;;;;;;0.00;0.00;;;27.80;25.70;;;;;;5035316;28;20107;-78
2021/10/30 11:49:27;;;;;;;0.00;0.00;;;27.50;25.90;;;;;;5034023;28;20392;-79
2021/10/30 11:52:04;;;;;;;0.00;0.00;;;27.00;26.00;;;;;;5017547;28;20021;-77
2021/10/30 11:54:30;;;;;;;0.35;0.35;;;26.80;26.10;;;;;;5017451;28;20041;-77
2021/10/30 11:56:56;;;;;;;0.10;0.10;;;26.80;25.80;;;;;;5034983;28;20026;-79
2021/10/30 11:59:22;;;;;;;0.00;0.00;;;27.10;25.20;;;;;;5035088;28;20022;-77
2021/10/30 12:01:49;;;;;;;0.10;0.10;;;27.40;26.30;;;;;;5035391;28;20021;-77
2021/10/30 12:04:25;;;;;;;0.03;0.03;;;27.90;27.10;;;;;;5035573;28;20053;-77
2021/10/30 12:06:52;;;;;;;0.00;0.00;;;28.10;27.10;;;;;;5033749;28;20028;-77
2021/10/30 12:09:54;;;;;;;0.00;0.00;;;28.40;27.60;;;;;;5034987;28;20021;-77
2021/10/30 12:12:21;;;;;;;0.00;0.00;;;28.60;27.10;;;;;;5000956;28;20047;-77
2021/10/30 12:14:50;;;;;;;0.00;0.00;;;28.40;27.10;;;;;;5033416;28;20021;-78
2021/10/30 12:17:21;;;;;;;1.23;0.43;;;28.50;26.50;;;;;;5033573;28;20104;-78
2021/10/30 12:19:54;;;;;;;0.00;0.00;;;28.30;26.10;;;;;;5034873;28;20025;-77
2021/10/30 12:22:28;;;;;;;0.00;0.00;;;28.30;25.40;;;;;;5034871;28;20025;-77
2021/10/30 12:25:15;;;;;;;0.00;0.00;;;27.90;25.90;;;;;;5039351;28;20386;-77
2021/10/30 12:27:52;;;;;;;0.00;0.00;;;27.80;26.50;;;;;;5034629;28;20079;-79
2021/10/30 12:30:24;;;;;;;0.00;0.00;;;27.30;26.10;;;;;;5034210;28;20422;-77
2021/10/30 12:32:51;;;;;;;0.00;0.00;;;26.50;27.70;;;;;;5016210;28;20488;-77
2021/10/30 12:35:21;;;;;;;1.60;1.13;;;26.10;29.10;;;;;;5016596;28;20393;-77
2021/10/30 12:37:48;;;;;;;0.00;0.00;;;25.70;29.40;;;;;;5033499;28;20057;-77
2021/10/30 12:40:15;;;;;;;0.10;0.10;;;25.50;28.90;;;;;;5034585;28;20017;-77
2021/10/30 12:42:41;;;;;;;0.00;0.00;;;25.10;30.70;;;;;;5034363;28;20083;-77
2021/10/30 12:45:07;;;;;;;0.00;0.00;;;25.00;32.70;;;;;;5034235;28;20018;-78
2021/10/30 12:47:35;;;;;;;0.00;0.00;;;24.80;33.00;;;;;;5033090;28;20159;-77
2021/10/30 12:50:09;;;;;;;0.10;0.10;;;24.80;32.90;;;;;;5034152;28;20029;-77
2021/10/30 12:52:42;;;;;;;0.10;0.10;;;24.80;33.30;;;;;;5034024;28;20485;-77
2021/10/30 12:55:20;;;;;;;0.00;0.00;;;24.90;33.40;;;;;;5033940;28;20029;-77
2021/10/30 12:58:01;;;;;;;0.00;0.00;;;24.70;33.80;;;;;;5034070;28;20017;-77
2021/10/30 13:00:38;;;;;;;0.00;0.00;;;24.50;34.10;;;;;;5032564;28;20022;-77
2021/10/30 13:03:14;;;;;;;0.08;0.08;;;24.50;33.80;;;;;;5016162;28;20075;-78
2021/10/30 13:05:43;;;;;;;0.10;0.10;;;24.30;33.60;;;;;;5016167;28;20389;-77
2021/10/30 13:08:09;;;;;;;0.00;0.00;;;23.90;33.30;;;;;;5032710;28;20108;-77